Time;durP1;ratioP1;P1;durP2;ratioP2;P2;SDS_P1;SDS_P2;PMS_P1;PMS_P2;Temp;Humidity;BMP_temperature;BMP_pressure;BME280_temperature;BME280_humidity;BME280_pressure;Samples;Min_cycle;Max_cycle;Signal;HPM_P1;HPM_P2
2021/09/04 00:01:43;;;;;;;;;;;;;;;15.04;72.29;98324.86;1581802;89;20266;-90
2021/09/04 00:04:09;;;;;;;;;;;;;;;15.02;72.38;98325.47;1577595;89;20325;-88
2021/09/04 00:06:35;;;;;;;;;;;;;;;14.98;72.49;98322.77;1576657;90;26016;-89
2021/09/04 00:09:01;;;;;;;;;;;;;;;14.92;72.53;98329.06;1574617;90;24473;-86
2021/09/04 00:11:28;;;;;;;;;;;;;;;14.86;72.62;98325.66;1571388;90;20246;-86
2021/09/04 00:13:59;;;;;;;;;;;;;;;14.84;72.71;98329.73;1575756;90;24934;-86
2021/09/04 00:16:26;;;;;;;;;;;;;;;14.80;72.78;98333.61;1576477;90;22008;-88
2021/09/04 00:18:52;;;;;;;;;;;;;;;14.77;72.87;98330.43;1578288;90;25839;-89
2021/09/04 00:21:18;;;;;;;;;;;;;;;14.72;72.93;98332.64;1574162;90;24408;-87
2021/09/04 00:23:44;;;;;;;;;;;;;;;14.71;73.02;98337.55;1579430;90;20771;-86
2021/09/04 00:26:22;;;;;;;;;;;;;;;14.68;73.11;98329.42;1580120;90;20744;-87
2021/09/04 00:28:49;;;;;;;;;;;;;;;14.68;73.20;98339.13;1583749;90;22731;-88
2021/09/04 00:31:15;;;;;;;;;;;;;;;14.67;73.28;98334.37;1579054;90;26069;-87
2021/09/04 00:33:41;;;;;;;;;;;;;;;14.65;73.36;98331.86;1580031;90;24406;-87
2021/09/04 00:36:07;;;;;;;;;;;;;;;14.60;73.42;98336.70;1575355;90;20246;-88
2021/09/04 00:38:33;;;;;;;;;;;;;;;14.59;73.50;98332.40;1581016;90;20770;-88
2021/09/04 00:40:58;;;;;;;;;;;;;;;14.54;73.55;98329.33;1602689;88;20294;-88
2021/09/04 00:43:25;;;;;;;;;;;;;;;14.49;73.61;98326.27;1583106;90;21012;-88
2021/09/04 00:45:51;;;;;;;;;;;;;;;14.46;73.69;98327.00;1581077;90;24570;-88
2021/09/04 00:48:20;;;;;;;;;;;;;;;14.42;73.78;98322.50;1581075;90;20482;-88
2021/09/04 00:50:55;;;;;;;;;;;;;;;14.42;73.86;98322.98;1580542;90;24814;-86
2021/09/04 00:53:21;;;;;;;;;;;;;;;14.41;73.95;98323.45;1589420;87;21941;-86
2021/09/04 00:55:47;;;;;;;;;;;;;;;14.41;74.05;98316.87;1599935;89;26092;-89
2021/09/04 00:58:13;;;;;;;;;;;;;;;14.39;74.12;98315.36;1605000;89;24459;-89
2021/09/04 01:00:42;;;;;;;;;;;;;;;14.39;74.21;98317.52;1599674;89;20253;-89
2021/09/04 01:03:12;;;;;;;;;;;;;;;14.39;74.28;98317.52;1599435;89;25639;-87
2021/09/04 01:05:43;;;;;;;;;;;;;;;14.36;74.34;98315.58;1604373;89;22601;-85
2021/09/04 01:08:13;;;;;;;;;;;;;;;14.36;74.42;98313.78;1601809;88;26183;-85
2021/09/04 01:10:39;;;;;;;;;;;;;;;14.36;74.51;98320.84;1602843;89;25359;-85
2021/09/04 01:13:05;;;;;;;;;;;;;;;14.32;74.54;98314.19;1603303;88;20513;-85
2021/09/04 01:15:31;;;;;;;;;;;;;;;14.30;74.62;98320.06;1601552;89;24783;-85
2021/09/04 01:18:03;;;;;;;;;;;;;;;14.30;74.69;98320.89;1621357;87;20244;-85
2021/09/04 01:20:30;;;;;;;;;;;;;;;14.30;74.77;98320.89;1572088;90;26765;-86
2021/09/04 01:22:59;;;;;;;;;;;;;;;14.27;74.85;98325.13;1571729;90;24650;-86
2021/09/04 01:25:26;;;;;;;;;;;;;;;14.25;74.88;98327.05;1552019;91;20509;-89
2021/09/04 01:27:53;;;;;;;;;;;;;;;14.26;74.95;98327.40;1554288;91;24880;-88
2021/09/04 01:30:19;;;;;;;;;;;;;;;14.27;75.04;98325.60;1599980;88;21894;-88
2021/09/04 01:32:45;;;;;;;;;;;;;;;14.24;75.07;98321.42;1575768;89;25968;-88
2021/09/04 01:35:12;;;;;;;;;;;;;;;14.23;75.14;98325.05;1576192;90;20306;-88
2021/09/04 01:37:42;;;;;;;;;;;;;;;14.23;75.21;98319.78;1548375;91;20301;-89
2021/09/04 01:40:10;;;;;;;;;;;;;;;14.24;75.28;98322.73;1545939;91;24741;-88
2021/09/04 01:42:36;;;;;;;;;;;;;;;14.22;75.33;98312.84;1575378;89;22056;-88
2021/09/04 01:45:02;;;;;;;;;;;;;;;14.21;75.38;98312.01;1568782;89;21059;-88
2021/09/04 01:47:28;;;;;;;;;;;;;;;14.19;75.44;98316.56;1573466;90;24534;-90
2021/09/04 01:49:54;;;;;;;;;;;;;;;14.17;75.48;98308.47;1552230;91;20377;-87
2021/09/04 01:52:21;;;;;;;;;;;;;;;14.11;75.52;98302.41;1550208;91;24820;-84
2021/09/04 01:54:49;;;;;;;;;;;;;;;14.10;75.58;98312.58;1556618;90;21994;-89
2021/09/04 01:57:15;;;;;;;;;;;;;;;14.06;75.60;98306.76;1596294;89;26691;-88
2021/09/04 01:59:41;;;;;;;;;;;;;;;14.03;75.69;98300.42;1596523;89;24483;-88
2021/09/04 02:02:08;;;;;;;;;;;;;;;14.04;75.77;98301.27;1594660;89;20692;-88
2021/09/04 02:04:37;;;;;;;;;;;;;;;14.06;75.82;98304.61;1593558;89;25389;-89
2021/09/04 02:07:04;;;;;;;;;;;;;;;14.06;75.89;98301.50;1596076;89;21925;-88
2021/09/04 02:09:30;;;;;;;;;;;;;;;14.03;75.95;98298.27;1596313;89;26058;-88
2021/09/04 02:11:57;;;;;;;;;;;;;;;14.01;76.04;98298.43;1594226;89;25224;-88
2021/09/04 02:14:24;;;;;;;;;;;;;;;13.98;76.12;98303.94;1594962;89;20255;-88
2021/09/04 02:16:50;;;;;;;;;;;;;;;13.98;76.16;98301.30;1594683;89;24789;-88
2021/09/04 02:19:22;;;;;;;;;;;;;;;14.00;76.25;98305.13;1598788;89;21820;-89
2021/09/04 02:21:48;;;;;;;;;;;;;;;13.97;76.31;98300.11;1595621;89;25826;-89
2021/09/04 02:24:14;;;;;;;;;;;;;;;13.96;76.38;98293.21;1594049;89;20296;-86
2021/09/04 02:26:42;;;;;;;;;;;;;;;13.96;76.43;98299.79;1604103;89;20259;-87
2021/09/04 02:29:08;;;;;;;;;;;;;;;13.93;76.49;98297.41;1595353;89;20799;-86
2021/09/04 02:31:35;;;;;;;;;;;;;;;13.90;76.52;98301.14;1594587;89;22834;-86
2021/09/04 02:34:01;;;;;;;;;;;;;;;13.88;76.58;98296.48;1596285;89;25951;-87
2021/09/04 02:36:28;;;;;;;;;;;;;;;13.87;76.61;98300.55;1614288;88;24531;-87
2021/09/04 02:38:54;;;;;;;;;;;;;;;13.86;76.67;98304.98;1595268;89;20233;-86
2021/09/04 02:41:20;;;;;;;;;;;;;;;13.83;76.73;98302.14;1596619;89;24681;-90
2021/09/04 02:43:46;;;;;;;;;;;;;;;13.82;76.78;98297.84;1594810;89;20258;-89
2021/09/04 02:46:12;;;;;;;;;;;;;;;13.82;76.85;98300.47;1595485;89;21049;-89
2021/09/04 02:48:38;;;;;;;;;;;;;;;13.85;76.91;98299.88;1597169;89;25066;-87
2021/09/04 02:51:04;;;;;;;;;;;;;;;13.85;76.97;98295.45;1595970;89;20328;-86
2021/09/04 02:53:30;;;;;;;;;;;;;;;13.83;76.99;98298.20;1594120;88;20438;-86
2021/09/04 02:55:58;;;;;;;;;;;;;;;13.80;77.03;98294.50;1573196;90;20238;-88
2021/09/04 02:58:24;;;;;;;;;;;;;;;13.78;77.07;98292.98;1578456;89;26087;-89
2021/09/04 03:00:56;;;;;;;;;;;;;;;13.76;77.14;98293.09;1573359;90;20299;-89
2021/09/04 03:03:22;;;;;;;;;;;;;;;13.74;77.16;98292.41;1581377;90;20551;-90
2021/09/04 03:05:49;;;;;;;;;;;;;;;13.72;77.21;98294.81;1579609;90;24736;-89
2021/09/04 03:08:16;;;;;;;;;;;;;;;13.70;77.27;98292.78;1581058;90;22094;-88
2021/09/04 03:10:42;;;;;;;;;;;;;;;13.67;77.30;98293.89;1575269;90;26683;-89
2021/09/04 03:13:09;;;;;;;;;;;;;;;13.64;77.33;98291.50;1582914;89;20242;-89
2021/09/04 03:15:38;;;;;;;;;;;;;;;13.61;77.38;98287.83;1581797;90;20359;-86
2021/09/04 03:18:05;;;;;;;;;;;;;;;13.57;77.41;98289.53;1566152;90;39148;-86
2021/09/04 03:20:31;;;;;;;;;;;;;;;13.54;77.46;98289.78;1582825;90;20319;-86
2021/09/04 03:23:06;;;;;;;;;;;;;;;13.49;77.52;98284.91;1576255;90;21223;-86
2021/09/04 03:25:39;;;;;;;;;;;;;;;13.49;77.57;98279.66;1584238;90;25553;-87
2021/09/04 03:28:11;;;;;;;;;;;;;;;13.47;77.61;98284.70;1583683;90;20248;-87
2021/09/04 03:30:41;;;;;;;;;;;;;;;13.44;77.68;98282.31;1581693;90;24772;-87
2021/09/04 03:33:14;;;;;;;;;;;;;;;13.45;77.76;98287.94;1582202;90;22028;-89
2021/09/04 03:35:52;;;;;;;;;;;;;;;13.44;77.84;98289.72;1584059;90;26015;-89
2021/09/04 03:38:18;;;;;;;;;;;;;;;13.43;77.92;98292.47;1580859;90;24717;-89
2021/09/04 03:40:45;;;;;;;;;;;;;;;13.44;77.99;98290.20;1586740;90;20797;-89
2021/09/04 03:43:14;;;;;;;;;;;;;;;13.46;78.06;98289.13;1579683;89;26650;-88
2021/09/04 03:45:40;;;;;;;;;;;;;;;13.47;78.15;98292.59;1571637;90;21985;-87
2021/09/04 03:48:06;;;;;;;;;;;;;;;13.41;78.23;98300.51;1579815;90;26031;-88
2021/09/04 03:50:33;;;;;;;;;;;;;;;13.31;78.27;98296.48;1580941;90;20294;-89
2021/09/04 03:53:01;;;;;;;;;;;;;;;13.33;78.35;98295.04;1585647;90;20177;-89
2021/09/04 03:55:31;;;;;;;;;;;;;;;13.43;78.40;98297.25;1597295;89;24822;-89
2021/09/04 03:57:54;;;;;;;;;;;;;;;13.51;78.43;98300.09;1571964;90;22105;-89
2021/09/04 04:00:20;;;;;;;;;;;;;;;13.57;78.48;98296.95;1569341;90;21260;-89
2021/09/04 04:02:46;;;;;;;;;;;;;;;13.62;78.52;98300.50;1571776;90;24541;-90
2021/09/04 04:05:12;;;;;;;;;;;;;;;13.65;78.53;98295.80;1573273;90;20363;-89
2021/09/04 04:07:38;;;;;;;;;;;;;;;13.69;78.55;98297.71;1573805;90;20314;-89
2021/09/04 04:10:04;;;;;;;;;;;;;;;13.61;78.56;98304.08;1553082;91;20275;-88
2021/09/04 04:12:32;;;;;;;;;;;;;;;13.46;78.54;98303.59;1552107;91;26237;-88
2021/09/04 04:14:59;;;;;;;;;;;;;;;13.42;78.56;98304.78;1554357;91;24757;-85
2021/09/04 04:17:25;;;;;;;;;;;;;;;13.52;78.60;98306.19;1550809;91;20260;-88
2021/09/04 04:19:51;;;;;;;;;;;;;;;13.62;78.64;98295.23;1552733;91;24861;-88
2021/09/04 04:22:17;;;;;;;;;;;;;;;13.68;78.65;98304.77;1601505;87;21694;-89
2021/09/04 04:24:43;;;;;;;;;;;;;;;13.69;78.65;98307.72;1574687;90;21000;-86
2021/09/04 04:27:10;;;;;;;;;;;;;;;13.72;78.65;98307.95;1575180;90;24572;-86
2021/09/04 04:29:37;;;;;;;;;;;;;;;13.73;78.61;98314.89;1569556;89;20233;-85
2021/09/04 04:32:04;;;;;;;;;;;;;;;13.74;78.59;98313.94;1544119;91;24744;-85
2021/09/04 04:34:30;;;;;;;;;;;;;;;13.71;78.60;98308.44;1572236;89;22049;-89
2021/09/04 04:36:55;;;;;;;;;;;;;;;13.71;78.62;98306.28;1550443;91;20974;-89
2021/09/04 04:39:21;;;;;;;;;;;;;;;13.69;78.63;98309.04;1572150;89;20289;-85
2021/09/04 04:41:47;;;;;;;;;;;;;;;13.71;78.66;98310.23;1569844;90;20520;-86
2021/09/04 04:44:13;;;;;;;;;;;;;;;13.69;78.70;98307.72;1568017;90;24745;-87
2021/09/04 04:46:39;;;;;;;;;;;;;;;13.67;78.72;98306.20;1553102;91;22041;-85
2021/09/04 04:49:05;;;;;;;;;;;;;;;13.64;78.73;98311.22;1572658;89;20881;-85
2021/09/04 04:51:37;;;;;;;;;;;;;;;13.62;78.77;98315.80;1548625;91;24504;-87
2021/09/04 04:54:04;;;;;;;;;;;;;;;13.62;78.83;98318.42;1551499;91;20271;-85
2021/09/04 04:56:30;;;;;;;;;;;;;;;13.61;78.89;98321.17;1554852;91;25450;-85
2021/09/04 04:58:55;;;;;;;;;;;;;;;13.58;78.94;98322.25;1547841;91;20229;-88
2021/09/04 05:01:21;;;;;;;;;;;;;;;13.57;78.98;98322.41;1555661;91;21081;-87
2021/09/04 05:04:00;;;;;;;;;;;;;;;13.55;79.04;98323.00;1554722;91;20934;-89
2021/09/04 05:06:32;;;;;;;;;;;;;;;13.52;79.09;98325.42;1547121;91;20153;-89
2021/09/04 05:08:58;;;;;;;;;;;;;;;13.56;79.18;98325.52;1547714;91;24754;-87
2021/09/04 05:11:26;;;;;;;;;;;;;;;13.57;79.27;98317.14;1593942;88;20319;-86
2021/09/04 05:13:53;;;;;;;;;;;;;;;13.61;79.34;98318.07;1597659;88;26739;-86
2021/09/04 05:16:19;;;;;;;;;;;;;;;13.66;79.42;98315.05;1586645;89;24504;-86
2021/09/04 05:18:45;;;;;;;;;;;;;;;13.69;79.49;98315.61;1586945;89;20226;-86
2021/09/04 05:21:11;;;;;;;;;;;;;;;13.74;79.57;98313.94;1579306;90;20246;-87
2021/09/04 05:23:37;;;;;;;;;;;;;;;13.78;79.64;98312.22;1587835;89;21946;-87
2021/09/04 05:26:03;;;;;;;;;;;;;;;13.86;79.73;98309.41;1583385;89;26038;-85
2021/09/04 05:28:29;;;;;;;;;;;;;;;13.91;79.80;98311.19;1596111;88;24412;-85
2021/09/04 05:30:56;;;;;;;;;;;;;;;13.97;79.90;98313.27;1620037;87;20884;-85
2021/09/04 05:33:25;;;;;;;;;;;;;;;14.02;79.93;98315.05;1593873;89;25401;-85
2021/09/04 05:35:57;;;;;;;;;;;;;;;14.06;80.03;98315.13;1602875;88;22067;-88
2021/09/04 05:38:23;;;;;;;;;;;;;;;14.12;80.08;98315.92;1586037;89;26091;-87
2021/09/04 05:40:49;;;;;;;;;;;;;;;14.20;80.14;98314.77;1584185;89;20917;-87
2021/09/04 05:43:15;;;;;;;;;;;;;;;14.27;80.21;98317.23;1588544;89;21114;-87
2021/09/04 05:45:41;;;;;;;;;;;;;;;14.34;80.27;98322.80;1586029;89;20876;-87
2021/09/04 05:48:07;;;;;;;;;;;;;;;14.37;80.33;98315.48;1581288;89;21957;-88
2021/09/04 05:50:33;;;;;;;;;;;;;;;14.44;80.37;98324.53;1580493;89;25916;-88
2021/09/04 05:52:59;;;;;;;;;;;;;;;14.50;80.44;98320.52;1584132;89;24481;-88
2021/09/04 05:55:25;;;;;;;;;;;;;;;14.56;80.49;98322.11;1583288;89;20322;-88
2021/09/04 05:57:52;;;;;;;;;;;;;;;14.59;80.57;98315.27;1578896;89;24775;-90
2021/09/04 06:00:18;;;;;;;;;;;;;;;14.65;80.61;98317.37;1575529;89;22025;-86
2021/09/04 06:02:44;;;;;;;;;;;;;;;14.73;80.71;98322.45;1540929;91;26065;-86
2021/09/04 06:05:11;;;;;;;;;;;;;;;14.78;80.76;98331.62;1576253;90;24444;-86
2021/09/04 06:07:39;;;;;;;;;;;;;;;14.84;80.81;98332.36;1567539;90;20223;-86
2021/09/04 06:10:09;;;;;;;;;;;;;;;14.91;80.84;98327.39;1549969;91;24829;-86
2021/09/04 06:12:35;;;;;;;;;;;;;;;15.01;80.91;98320.32;1574042;89;21984;-86
2021/09/04 06:15:01;;;;;;;;;;;;;;;15.11;80.98;98324.30;1571815;90;21210;-88
2021/09/04 06:17:27;;;;;;;;;;;;;;;15.20;81.03;98326.94;1577303;90;20971;-88
2021/09/04 06:19:53;;;;;;;;;;;;;;;15.28;81.05;98332.81;1577932;90;20524;-88
2021/09/04 06:22:19;;;;;;;;;;;;;;;15.31;81.14;98328.12;1548202;91;24971;-88
2021/09/04 06:24:45;;;;;;;;;;;;;;;15.39;81.16;98330.04;1543177;91;20249;-85
2021/09/04 06:27:11;;;;;;;;;;;;;;;15.43;81.22;98325.69;1540474;91;21053;-87
2021/09/04 06:29:37;;;;;;;;;;;;;;;15.50;81.27;98325.45;1574583;89;20331;-89
2021/09/04 06:32:05;;;;;;;;;;;;;;;15.55;81.31;98325.06;1569928;89;20945;-88
2021/09/04 06:34:32;;;;;;;;;;;;;;;15.63;81.35;98325.69;1571115;89;24814;-88
2021/09/04 06:36:58;;;;;;;;;;;;;;;15.72;81.44;98320.87;1574103;89;22227;-85
2021/09/04 06:39:30;;;;;;;;;;;;;;;15.79;81.51;98325.93;1543066;91;21663;-86
2021/09/04 06:41:56;;;;;;;;;;;;;;;15.83;81.55;98325.50;1544096;91;24540;-85
2021/09/04 06:44:22;;;;;;;;;;;;;;;15.91;81.60;98320.84;1570475;89;20916;-85
2021/09/04 06:46:48;;;;;;;;;;;;;;;15.99;81.65;98322.74;1545257;91;21236;-85
2021/09/04 06:49:14;;;;;;;;;;;;;;;16.09;81.69;98332.81;1543236;91;20527;-85
2021/09/04 06:51:40;;;;;;;;;;;;;;;16.19;81.73;98329.64;1571458;89;21123;-86
2021/09/04 06:54:06;;;;;;;;;;;;;;;16.28;81.77;98336.20;1550447;91;25073;-87
2021/09/04 06:56:32;;;;;;;;;;;;;;;16.42;81.81;98338.84;1565608;89;20307;-87
2021/09/04 06:58:58;;;;;;;;;;;;;;;16.57;81.90;98328.64;1548396;91;24851;-87
2021/09/04 07:01:24;;;;;;;;;;;;;;;16.71;81.94;98336.92;1571256;89;21986;-88
2021/09/04 07:03:51;;;;;;;;;;;;;;;16.79;81.94;98342.80;1570182;90;26059;-88
2021/09/04 07:06:17;;;;;;;;;;;;;;;16.87;81.93;98338.08;1541315;92;24517;-87
2021/09/04 07:08:43;;;;;;;;;;;;;;;16.98;81.89;98336.05;1568191;90;20793;-86
2021/09/04 07:11:09;;;;;;;;;;;;;;;17.10;81.87;98339.31;1551296;92;24861;-88
2021/09/04 07:13:35;;;;;;;;;;;;;;;17.17;81.82;98341.71;1550339;92;22031;-85
2021/09/04 07:16:01;;;;;;;;;;;;;;;17.25;81.77;98336.97;1568485;89;26110;-85
2021/09/04 07:18:27;;;;;;;;;;;;;;;17.33;81.70;98338.38;1569166;90;20318;-85
2021/09/04 07:20:53;;;;;;;;;;;;;;;17.42;81.65;98338.29;1573099;90;20812;-85
2021/09/04 07:23:19;;;;;;;;;;;;;;;17.50;81.63;98339.70;1564453;90;20364;-88
2021/09/04 07:25:46;;;;;;;;;;;;;;;17.58;81.60;98337.10;1544422;92;20944;-87
2021/09/04 07:28:12;;;;;;;;;;;;;;;17.69;81.55;98346.64;1554202;92;26178;-87
2021/09/04 07:30:38;;;;;;;;;;;;;;;17.76;81.50;98343.73;1566164;90;24410;-86
2021/09/04 07:33:05;;;;;;;;;;;;;;;17.80;81.38;98345.56;1567270;90;20949;-85
2021/09/04 07:35:32;;;;;;;;;;;;;;;17.84;81.25;98345.59;1565099;90;24662;-86
2021/09/04 07:38:02;;;;;;;;;;;;;;;17.88;81.14;98346.47;1555474;92;21961;-86
2021/09/04 07:40:38;;;;;;;;;;;;;;;17.95;81.02;98341.36;1568088;90;26126;-86
2021/09/04 07:43:08;;;;;;;;;;;;;;;18.02;80.91;98350.84;1548604;92;25444;-85
2021/09/04 07:45:52;;;;;;;;;;;;;;;18.12;80.85;98352.89;1549140;91;20272;-85
2021/09/04 07:48:25;;;;;;;;;;;;;;;18.20;80.78;98344.52;1548964;91;25495;-86
2021/09/04 07:51:01;;;;;;;;;;;;;;;18.33;80.72;98350.69;1540209;92;22212;-84
2021/09/04 07:53:27;;;;;;;;;;;;;;;18.39;80.62;98350.89;1565796;91;26038;-86
2021/09/04 07:55:59;;;;;;;;;;;;;;;18.42;80.50;98343.62;1568411;90;25189;-85
2021/09/04 07:58:30;;;;;;;;;;;;;;;18.48;80.40;98349.13;1567134;90;20306;-85
2021/09/04 08:00:56;;;;;;;;;;;;;;;18.46;80.27;98356.88;1574923;89;24870;-85
2021/09/04 08:03:22;;;;;;;;;;;;;;;18.49;80.14;98354.77;1573214;90;20835;-88
2021/09/04 08:05:48;;;;;;;;;;;;;;;18.55;80.06;98351.98;1575350;90;21061;-88
2021/09/04 08:08:14;;;;;;;;;;;;;;;18.64;79.98;98357.18;1574118;90;24479;-88
2021/09/04 08:10:43;;;;;;;;;;;;;;;18.69;79.91;98353.55;1572523;90;20228;-88
2021/09/04 08:13:08;;;;;;;;;;;;;;;18.78;79.83;98354.40;1569326;90;24818;-85
2021/09/04 08:15:34;;;;;;;;;;;;;;;18.83;79.70;98358.72;1566059;90;20332;-85
2021/09/04 08:18:00;;;;;;;;;;;;;;;18.89;79.60;98358.58;1569297;90;26118;-85
2021/09/04 08:20:26;;;;;;;;;;;;;;;18.96;79.51;98358.27;1572649;90;20282;-85
2021/09/04 08:22:52;;;;;;;;;;;;;;;19.02;79.43;98361.11;1572579;90;20525;-85
2021/09/04 08:25:18;;;;;;;;;;;;;;;19.08;79.35;98360.47;1565173;90;20260;-85
2021/09/04 08:27:44;;;;;;;;;;;;;;;19.10;79.17;98363.77;1567167;90;20319;-85
2021/09/04 08:30:20;;;;;;;;;;;;;;;19.17;79.12;98358.66;1564047;90;25977;-85
2021/09/04 08:32:46;;;;;;;;;;;;;;;19.20;78.99;98363.65;1567970;90;24446;-85
2021/09/04 08:35:12;;;;;;;;;;;;;;;19.29;78.92;98366.64;1568508;90;20868;-84
2021/09/04 08:37:42;;;;;;;;;;;;;;;19.33;78.87;98366.64;1563531;90;24789;-85
2021/09/04 08:40:18;;;;;;;;;;;;;;;19.45;78.85;98368.02;1565550;90;22020;-88
2021/09/04 08:42:51;;;;;;;;;;;;;;;19.57;78.88;98368.03;1565596;90;26217;-88
2021/09/04 08:45:17;;;;;;;;;;;;;;;19.67;78.78;98371.02;1570050;90;24421;-88
2021/09/04 08:47:44;;;;;;;;;;;;;;;19.79;78.66;98363.88;1570812;90;20498;-88
2021/09/04 08:50:13;;;;;;;;;;;;;;;19.93;78.63;98370.33;1572266;90;24885;-88
2021/09/04 08:52:40;;;;;;;;;;;;;;;20.01;78.57;98375.16;1549442;92;22058;-88
2021/09/04 08:55:06;;;;;;;;;;;;;;;20.04;78.46;98372.64;1544895;92;26082;-88
2021/09/04 08:57:32;;;;;;;;;;;;;;;20.03;78.25;98374.96;1525612;92;24639;-87
2021/09/04 09:00:00;;;;;;;;;;;;;;;20.04;78.03;98377.46;1531155;93;20359;-85
2021/09/04 09:02:28;;;;;;;;;;;;;;;20.01;77.82;98376.98;1529831;92;25508;-85
2021/09/04 09:05:02;;;;;;;;;;;;;;;19.96;77.66;98371.34;1525250;93;22085;-88
2021/09/04 09:07:44;;;;;;;;;;;;;;;20.00;77.53;98372.66;1525838;92;26695;-88
2021/09/04 09:10:25;;;;;;;;;;;;;;;20.04;77.42;98374.80;1526232;93;24547;-88
2021/09/04 09:12:51;;;;;;;;;;;;;;;20.04;77.31;98363.34;1523971;93;20228;-88
2021/09/04 09:15:22;;;;;;;;;;;;;;;20.00;77.10;98369.50;1526533;92;24825;-88
2021/09/04 09:17:58;;;;;;;;;;;;;;;20.05;77.01;98368.50;1517030;93;22033;-88
2021/09/04 09:20:24;;;;;;;;;;;;;;;20.23;76.99;98366.14;1525231;93;26811;-88
2021/09/04 09:22:51;;;;;;;;;;;;;;;20.37;76.89;98361.48;1526813;93;24554;-88
2021/09/04 09:25:23;;;;;;;;;;;;;;;20.46;76.71;98362.61;1521742;93;20231;-88
2021/09/04 09:27:59;;;;;;;;;;;;;;;20.57;76.60;98363.23;1529791;92;24896;-89
2021/09/04 09:30:35;;;;;;;;;;;;;;;20.67;76.44;98365.22;1529778;92;22894;-88
2021/09/04 09:33:08;;;;;;;;;;;;;;;20.80;76.33;98362.31;1527004;92;26665;-88
2021/09/04 09:35:36;;;;;;;;;;;;;;;20.82;76.14;98354.17;1523052;92;24523;-88
2021/09/04 09:38:04;;;;;;;;;;;;;;;20.81;75.86;98361.81;1527782;92;20331;-85
2021/09/04 09:40:31;;;;;;;;;;;;;;;20.78;75.45;98355.53;1527099;92;24955;-88
2021/09/04 09:42:57;;;;;;;;;;;;;;;20.69;75.01;98360.03;1521976;93;21926;-89
2021/09/04 09:45:40;;;;;;;;;;;;;;;20.67;74.65;98361.22;1526158;92;26009;-85
2021/09/04 09:48:06;;;;;;;;;;;;;;;20.74;74.47;98362.17;1527345;92;24528;-85
2021/09/04 09:50:34;;;;;;;;;;;;;;;20.83;74.27;98361.15;1529353;92;20386;-88
2021/09/04 09:53:03;;;;;;;;;;;;;;;20.92;74.06;98363.26;1520593;92;24945;-85
2021/09/04 09:55:39;;;;;;;;;;;;;;;21.02;73.95;98364.70;1524369;92;22092;-86
2021/09/04 09:58:09;;;;;;;;;;;;;;;21.12;73.84;98359.14;1539376;91;26060;-85
2021/09/04 10:00:38;;;;;;;;;;;;;;;21.22;73.66;98358.48;1554291;91;24460;-86
2021/09/04 10:03:06;;;;;;;;;;;;;;;21.33;73.56;98361.23;1543965;91;20580;-86
2021/09/04 10:05:35;;;;;;;;;;;;;;;21.36;73.34;98352.88;1569741;90;24943;-85
2021/09/04 10:08:01;;;;;;;;;;;;;;;21.42;73.17;98355.67;1583103;89;22244;-85
2021/09/04 10:10:28;;;;;;;;;;;;;;;21.49;72.94;98361.12;1603009;88;25965;-85
2021/09/04 10:12:55;;;;;;;;;;;;;;;21.53;72.68;98355.75;1601553;89;24605;-85
2021/09/04 10:15:29;;;;;;;;;;;;;;;21.55;72.43;98366.53;1606053;89;20227;-85
2021/09/04 10:18:02;;;;;;;;;;;;;;;21.65;72.29;98360.99;1573577;89;25645;-86
2021/09/04 10:20:31;;;;;;;;;;;;;;;21.76;72.07;98365.06;1545162;91;21988;-86
2021/09/04 10:22:58;;;;;;;;;;;;;;;21.79;71.78;98357.53;1552678;90;25977;-88
2021/09/04 10:25:32;;;;;;;;;;;;;;;21.75;71.42;98362.91;1584771;90;24567;-88
2021/09/04 10:28:02;;;;;;;;;;;;;;;21.73;71.14;98363.58;1584511;89;20269;-87
2021/09/04 10:30:38;;;;;;;;;;;;;;;21.56;70.73;98357.55;1579829;90;25491;-86
2021/09/04 10:33:08;;;;;;;;;;;;;;;21.32;70.29;98367.05;1581667;89;22021;-85
2021/09/04 10:35:45;;;;;;;;;;;;;;;21.21;70.02;98360.81;1543788;91;26088;-89
2021/09/04 10:38:22;;;;;;;;;;;;;;;21.12;69.84;98359.98;1546796;91;24440;-89
2021/09/04 10:40:49;;;;;;;;;;;;;;;21.09;69.67;98359.51;1548201;91;20270;-89
2021/09/04 10:43:17;;;;;;;;;;;;;;;21.18;69.65;98353.98;1545408;91;24848;-89
2021/09/04 10:45:44;;;;;;;;;;;;;;;21.22;69.56;98353.95;1568860;90;22330;-89
2021/09/04 10:48:15;;;;;;;;;;;;;;;21.24;69.39;98361.77;1548387;91;26011;-89
2021/09/04 10:51:00;;;;;;;;;;;;;;;21.31;69.18;98363.23;1574100;89;24680;-89
2021/09/04 10:53:46;;;;;;;;;;;;;;;21.33;68.92;98354.58;1543486;91;20263;-89
2021/09/04 10:56:26;;;;;;;;;;;;;;;21.49;68.80;98348.61;1544889;91;25495;-87
2021/09/04 10:58:53;;;;;;;;;;;;;;;21.63;68.73;98347.02;1518188;93;22194;-87
2021/09/04 11:01:21;;;;;;;;;;;;;;;21.76;68.64;98345.91;1553419;91;26176;-87
2021/09/04 11:03:48;;;;;;;;;;;;;;;21.87;68.54;98344.16;1544425;92;24032;-87
2021/09/04 11:06:22;;;;;;;;;;;;;;;21.95;68.36;98342.76;1542978;91;20321;-87
2021/09/04 11:08:48;;;;;;;;;;;;;;;22.07;68.27;98343.98;1545937;91;24751;-88
2021/09/04 11:11:29;;;;;;;;;;;;;;;22.10;67.98;98344.94;1543310;91;22628;-89
2021/09/04 11:13:56;;;;;;;;;;;;;;;22.09;67.63;98339.27;1545668;91;26087;-89
2021/09/04 11:16:33;;;;;;;;;;;;;;;22.06;67.23;98338.32;1539468;92;24556;-88
2021/09/04 11:19:03;;;;;;;;;;;;;;;22.13;66.97;98333.09;1570274;89;20260;-88
2021/09/04 11:21:31;;;;;;;;;;;;;;;22.19;66.74;98336.36;1547963;91;24940;-88
2021/09/04 11:23:58;;;;;;;;;;;;;;;22.10;66.30;98336.94;1547869;91;22110;-88
2021/09/04 11:26:24;;;;;;;;;;;;;;;22.05;65.98;98337.98;1550255;91;26060;-88
2021/09/04 11:28:55;;;;;;;;;;;;;;;22.05;65.80;98333.99;1592621;88;24072;-88
2021/09/04 11:31:21;;;;;;;;;;;;;;;22.18;65.81;98340.03;1546682;89;20342;-88
2021/09/04 11:33:54;;;;;;;;;;;;;;;22.28;65.64;98340.59;1543959;92;20268;-89
2021/09/04 11:36:30;;;;;;;;;;;;;;;22.35;65.43;98337.52;1575017;90;22850;-88
2021/09/04 11:38:57;;;;;;;;;;;;;;;22.34;65.07;98341.70;1573077;90;26085;-89
2021/09/04 11:41:23;;;;;;;;;;;;;;;22.40;64.80;98344.46;1578311;89;25059;-89
2021/09/04 11:43:51;;;;;;;;;;;;;;;22.38;64.56;98334.97;1595335;88;20357;-89
2021/09/04 11:46:19;;;;;;;;;;;;;;;22.33;64.19;98342.70;1546354;90;25058;-89
2021/09/04 11:48:47;;;;;;;;;;;;;;;22.18;63.76;98345.37;1541394;91;22021;-90
2021/09/04 11:51:14;;;;;;;;;;;;;;;22.18;63.51;98339.20;1553106;91;25994;-89
2021/09/04 11:53:40;;;;;;;;;;;;;;;22.19;63.25;98342.20;1546189;92;24629;-89
2021/09/04 11:56:15;;;;;;;;;;;;;;;22.16;63.04;98337.22;1552979;91;20527;-89
2021/09/04 11:58:41;;;;;;;;;;;;;;;22.29;62.99;98340.09;1552977;91;24843;-90
2021/09/04 12:01:07;;;;;;;;;;;;;;;22.40;62.98;98335.62;1541843;91;20257;-88
2021/09/04 12:03:34;;;;;;;;;;;;;;;22.54;62.98;98348.13;1551055;91;26060;-88
2021/09/04 12:06:02;;;;;;;;;;;;;;;22.61;62.85;98352.22;1543499;91;24515;-86
2021/09/04 12:08:29;;;;;;;;;;;;;;;22.62;62.61;98347.20;1551710;91;20349;-88
2021/09/04 12:11:06;;;;;;;;;;;;;;;22.57;62.31;98346.94;1565395;89;24876;-85
2021/09/04 12:13:30;;;;;;;;;;;;;;;22.55;62.09;98352.45;1544270;91;21487;-86
2021/09/04 12:15:58;;;;;;;;;;;;;;;22.47;61.85;98348.56;1543475;91;26103;-87
2021/09/04 12:18:28;;;;;;;;;;;;;;;22.40;61.65;98343.12;1565013;90;24347;-88
2021/09/04 12:20:55;;;;;;;;;;;;;;;22.46;61.59;98345.06;1543432;91;20281;-88
2021/09/04 12:23:24;;;;;;;;;;;;;;;22.65;61.71;98347.66;1537808;91;24797;-88
2021/09/04 12:25:51;;;;;;;;;;;;;;;22.68;61.51;98339.30;1521937;93;22139;-87
2021/09/04 12:28:24;;;;;;;;;;;;;;;22.76;61.34;98343.21;1520371;93;26206;-86
2021/09/04 12:30:57;;;;;;;;;;;;;;;22.75;61.03;98337.55;1545549;91;24467;-89
2021/09/04 12:33:23;;;;;;;;;;;;;;;22.63;60.58;98344.36;1523241;93;20361;-87
2021/09/04 12:35:51;;;;;;;;;;;;;;;22.66;60.46;98345.81;1539147;91;25387;-88
2021/09/04 12:38:22;;;;;;;;;;;;;;;22.68;60.35;98343.80;1523653;93;22181;-85
2021/09/04 12:40:51;;;;;;;;;;;;;;;22.68;60.20;98342.47;1545855;91;26061;-86
2021/09/04 12:43:18;;;;;;;;;;;;;;;22.71;60.06;98339.41;1543853;91;24492;-89
2021/09/04 12:45:45;;;;;;;;;;;;;;;22.68;59.83;98347.80;1548804;90;20239;-87
2021/09/04 12:48:14;;;;;;;;;;;;;;;22.46;59.35;98345.06;1549253;91;24841;-87
2021/09/04 12:50:42;;;;;;;;;;;;;;;22.42;59.18;98346.42;1546495;91;22084;-87
2021/09/04 12:53:12;;;;;;;;;;;;;;;22.50;59.19;98348.17;1542053;91;26109;-85